sensor_id;sensor_type;location;lat;lon;timestamp;P1;durP1;ratioP1;P2;durP2;ratioP2
64132;SDS011;53116;52.020;4.446;2022-08-24T00:01:45;1.60;;;1.10;;
64132;SDS011;53116;52.020;4.446;2022-08-24T00:04:11;1.80;;;1.00;;
64132;SDS011;53116;52.020;4.446;2022-08-24T00:06:36;3.87;;;1.10;;
64132;SDS011;53116;52.020;4.446;2022-08-24T00:09:02;2.33;;;1.20;;
64132;SDS011;53116;52.020;4.446;2022-08-24T00:11:28;2.72;;;1.10;;
64132;SDS011;53116;52.020;4.446;2022-08-24T00:13:53;2.10;;;1.30;;
64132;SDS011;53116;52.020;4.446;2022-08-24T00:16:19;1.80;;;1.02;;
64132;SDS011;53116;52.020;4.446;2022-08-24T00:18:45;2.05;;;1.35;;
64132;SDS011;53116;52.020;4.446;2022-08-24T00:21:12;3.50;;;1.15;;
64132;SDS011;53116;52.020;4.446;2022-08-24T00:23:38;2.15;;;1.10;;
64132;SDS011;53116;52.020;4.446;2022-08-24T00:26:04;3.40;;;1.17;;
64132;SDS011;53116;52.020;4.446;2022-08-24T00:28:30;2.33;;;1.27;;
64132;SDS011;53116;52.020;4.446;2022-08-24T00:30:56;3.28;;;1.30;;
64132;SDS011;53116;52.020;4.446;2022-08-24T00:33:21;3.20;;;1.30;;
64132;SDS011;53116;52.020;4.446;2022-08-24T00:35:46;2.10;;;1.30;;
64132;SDS011;53116;52.020;4.446;2022-08-24T00:38:12;4.47;;;1.38;;
64132;SDS011;53116;52.020;4.446;2022-08-24T00:40:40;3.08;;;1.23;;
64132;SDS011;53116;52.020;4.446;2022-08-24T00:43:08;3.25;;;1.50;;
64132;SDS011;53116;52.020;4.446;2022-08-24T00:45:45;3.38;;;1.50;;
64132;SDS011;53116;52.020;4.446;2022-08-24T00:48:20;1.77;;;1.15;;
64132;SDS011;53116;52.020;4.446;2022-08-24T00:50:49;3.38;;;1.60;;
64132;SDS011;53116;52.020;4.446;2022-08-24T00:53:32;1.80;;;1.20;;
64132;SDS011;53116;52.020;4.446;2022-08-24T00:56:02;1.83;;;1.13;;
64132;SDS011;53116;52.020;4.446;2022-08-24T00:58:33;4.13;;;1.30;;
64132;SDS011;53116;52.020;4.446;2022-08-24T01:01:02;4.03;;;1.40;;
64132;SDS011;53116;52.020;4.446;2022-08-24T01:03:30;2.15;;;1.10;;
64132;SDS011;53116;52.020;4.446;2022-08-24T01:05:56;1.90;;;1.17;;
64132;SDS011;53116;52.020;4.446;2022-08-24T01:08:23;2.30;;;1.38;;
64132;SDS011;53116;52.020;4.446;2022-08-24T01:10:54;2.45;;;1.23;;
64132;SDS011;53116;52.020;4.446;2022-08-24T01:13:25;1.55;;;1.08;;
64132;SDS011;53116;52.020;4.446;2022-08-24T01:15:52;2.28;;;1.10;;
64132;SDS011;53116;52.020;4.446;2022-08-24T01:18:22;1.98;;;1.30;;
64132;SDS011;53116;52.020;4.446;2022-08-24T01:21:15;2.28;;;1.45;;
64132;SDS011;53116;52.020;4.446;2022-08-24T01:23:43;2.67;;;1.40;;
64132;SDS011;53116;52.020;4.446;2022-08-24T01:26:14;3.40;;;1.52;;
64132;SDS011;53116;52.020;4.446;2022-08-24T01:28:43;1.85;;;1.33;;
64132;SDS011;53116;52.020;4.446;2022-08-24T01:31:11;3.47;;;1.45;;
64132;SDS011;53116;52.020;4.446;2022-08-24T01:33:36;1.60;;;1.38;;
64132;SDS011;53116;52.020;4.446;2022-08-24T01:36:14;2.33;;;1.40;;
64132;SDS011;53116;52.020;4.446;2022-08-24T01:38:46;2.08;;;1.30;;
64132;SDS011;53116;52.020;4.446;2022-08-24T01:41:12;2.38;;;1.40;;
64132;SDS011;53116;52.020;4.446;2022-08-24T01:43:38;3.42;;;1.50;;
64132;SDS011;53116;52.020;4.446;2022-08-24T01:46:04;2.90;;;1.50;;
64132;SDS011;53116;52.020;4.446;2022-08-24T01:48:29;2.10;;;1.30;;
64132;SDS011;53116;52.020;4.446;2022-08-24T01:50:55;4.90;;;1.70;;
64132;SDS011;53116;52.020;4.446;2022-08-24T01:53:20;1.90;;;1.45;;
64132;SDS011;53116;52.020;4.446;2022-08-24T01:55:46;4.18;;;1.40;;
64132;SDS011;53116;52.020;4.446;2022-08-24T01:58:11;2.13;;;1.20;;
64132;SDS011;53116;52.020;4.446;2022-08-24T02:00:37;3.42;;;1.50;;
64132;SDS011;53116;52.020;4.446;2022-08-24T02:03:03;3.92;;;1.50;;
64132;SDS011;53116;52.020;4.446;2022-08-24T02:05:28;1.50;;;1.20;;
64132;SDS011;53116;52.020;4.446;2022-08-24T02:07:54;1.30;;;1.20;;
64132;SDS011;53116;52.020;4.446;2022-08-24T02:10:22;4.40;;;1.50;;
64132;SDS011;53116;52.020;4.446;2022-08-24T02:12:48;2.05;;;1.60;;
64132;SDS011;53116;52.020;4.446;2022-08-24T02:15:21;2.38;;;1.20;;
64132;SDS011;53116;52.020;4.446;2022-08-24T02:18:08;2.92;;;1.50;;
64132;SDS011;53116;52.020;4.446;2022-08-24T02:20:36;2.55;;;1.50;;
64132;SDS011;53116;52.020;4.446;2022-08-24T02:23:02;2.60;;;1.30;;
64132;SDS011;53116;52.020;4.446;2022-08-24T02:25:28;1.58;;;1.30;;
64132;SDS011;53116;52.020;4.446;2022-08-24T02:27:55;2.03;;;1.20;;
64132;SDS011;53116;52.020;4.446;2022-08-24T02:30:22;2.58;;;1.35;;
64132;SDS011;53116;52.020;4.446;2022-08-24T02:32:48;1.85;;;1.40;;
64132;SDS011;53116;52.020;4.446;2022-08-24T02:35:13;4.50;;;1.70;;
64132;SDS011;53116;52.020;4.446;2022-08-24T02:37:39;2.63;;;1.30;;
64132;SDS011;53116;52.020;4.446;2022-08-24T02:40:04;1.93;;;1.57;;
64132;SDS011;53116;52.020;4.446;2022-08-24T02:42:31;2.13;;;1.50;;
64132;SDS011;53116;52.020;4.446;2022-08-24T02:44:57;2.38;;;1.40;;
64132;SDS011;53116;52.020;4.446;2022-08-24T02:47:23;2.13;;;1.25;;
64132;SDS011;53116;52.020;4.446;2022-08-24T02:49:49;4.63;;;1.83;;
64132;SDS011;53116;52.020;4.446;2022-08-24T02:52:14;1.40;;;1.17;;
64132;SDS011;53116;52.020;4.446;2022-08-24T02:54:39;1.80;;;1.40;;
64132;SDS011;53116;52.020;4.446;2022-08-24T02:57:05;2.70;;;1.50;;
64132;SDS011;53116;52.020;4.446;2022-08-24T02:59:31;2.55;;;1.60;;
64132;SDS011;53116;52.020;4.446;2022-08-24T03:01:56;1.60;;;1.30;;
64132;SDS011;53116;52.020;4.446;2022-08-24T03:04:21;1.83;;;1.40;;
64132;SDS011;53116;52.020;4.446;2022-08-24T03:06:47;1.48;;;1.20;;
64132;SDS011;53116;52.020;4.446;2022-08-24T03:09:12;1.42;;;1.20;;
64132;SDS011;53116;52.020;4.446;2022-08-24T03:11:38;2.55;;;1.50;;
64132;SDS011;53116;52.020;4.446;2022-08-24T03:14:03;1.23;;;1.08;;
64132;SDS011;53116;52.020;4.446;2022-08-24T03:16:29;2.55;;;1.30;;
64132;SDS011;53116;52.020;4.446;2022-08-24T03:18:55;2.83;;;1.60;;
64132;SDS011;53116;52.020;4.446;2022-08-24T03:21:21;1.70;;;1.20;;
64132;SDS011;53116;52.020;4.446;2022-08-24T03:23:47;2.67;;;1.35;;
64132;SDS011;53116;52.020;4.446;2022-08-24T03:26:12;3.28;;;1.50;;
64132;SDS011;53116;52.020;4.446;2022-08-24T03:28:39;1.58;;;1.30;;
64132;SDS011;53116;52.020;4.446;2022-08-24T03:31:04;3.58;;;1.48;;
64132;SDS011;53116;52.020;4.446;2022-08-24T03:33:30;2.95;;;1.38;;
64132;SDS011;53116;52.020;4.446;2022-08-24T03:35:55;3.13;;;1.50;;
64132;SDS011;53116;52.020;4.446;2022-08-24T03:38:20;2.15;;;1.35;;
64132;SDS011;53116;52.020;4.446;2022-08-24T03:40:46;3.08;;;1.42;;
64132;SDS011;53116;52.020;4.446;2022-08-24T03:43:12;2.53;;;1.63;;
64132;SDS011;53116;52.020;4.446;2022-08-24T03:45:58;2.35;;;1.50;;
64132;SDS011;53116;52.020;4.446;2022-08-24T03:48:25;3.80;;;1.60;;
64132;SDS011;53116;52.020;4.446;2022-08-24T03:50:51;6.20;;;2.03;;
64132;SDS011;53116;52.020;4.446;2022-08-24T03:53:16;2.08;;;1.35;;
64132;SDS011;53116;52.020;4.446;2022-08-24T03:55:42;1.95;;;1.67;;
64132;SDS011;53116;52.020;4.446;2022-08-24T03:58:07;1.90;;;1.60;;
64132;SDS011;53116;52.020;4.446;2022-08-24T04:00:32;2.63;;;1.80;;
64132;SDS011;53116;52.020;4.446;2022-08-24T04:02:58;3.75;;;1.60;;
64132;SDS011;53116;52.020;4.446;2022-08-24T04:05:23;2.40;;;1.67;;
64132;SDS011;53116;52.020;4.446;2022-08-24T04:07:48;1.80;;;1.60;;
64132;SDS011;53116;52.020;4.446;2022-08-24T04:10:13;2.30;;;1.63;;
64132;SDS011;53116;52.020;4.446;2022-08-24T04:12:39;2.65;;;1.58;;
64132;SDS011;53116;52.020;4.446;2022-08-24T04:15:04;4.03;;;1.60;;
64132;SDS011;53116;52.020;4.446;2022-08-24T04:17:31;2.92;;;1.80;;
64132;SDS011;53116;52.020;4.446;2022-08-24T04:19:56;2.95;;;1.70;;
64132;SDS011;53116;52.020;4.446;2022-08-24T04:22:22;1.95;;;1.40;;
64132;SDS011;53116;52.020;4.446;2022-08-24T04:24:49;2.50;;;1.60;;
64132;SDS011;53116;52.020;4.446;2022-08-24T04:27:15;2.67;;;1.60;;
64132;SDS011;53116;52.020;4.446;2022-08-24T04:29:40;2.00;;;1.73;;
64132;SDS011;53116;52.020;4.446;2022-08-24T04:32:05;3.63;;;1.97;;
64132;SDS011;53116;52.020;4.446;2022-08-24T04:34:31;3.22;;;1.92;;
64132;SDS011;53116;52.020;4.446;2022-08-24T04:36:57;3.75;;;1.83;;
64132;SDS011;53116;52.020;4.446;2022-08-24T04:39:22;4.72;;;1.90;;
64132;SDS011;53116;52.020;4.446;2022-08-24T04:41:48;3.05;;;1.83;;
64132;SDS011;53116;52.020;4.446;2022-08-24T04:44:13;3.60;;;1.90;;
64132;SDS011;53116;52.020;4.446;2022-08-24T04:46:39;6.18;;;2.00;;
64132;SDS011;53116;52.020;4.446;2022-08-24T04:49:04;3.05;;;1.85;;
64132;SDS011;53116;52.020;4.446;2022-08-24T04:51:29;2.85;;;1.92;;
64132;SDS011;53116;52.020;4.446;2022-08-24T04:53:55;2.22;;;1.83;;
64132;SDS011;53116;52.020;4.446;2022-08-24T04:56:21;2.03;;;1.60;;
64132;SDS011;53116;52.020;4.446;2022-08-24T04:58:49;3.95;;;1.70;;
64132;SDS011;53116;52.020;4.446;2022-08-24T05:01:17;3.00;;;1.90;;
64132;SDS011;53116;52.020;4.446;2022-08-24T05:03:44;7.07;;;2.28;;
64132;SDS011;53116;52.020;4.446;2022-08-24T05:06:13;4.50;;;1.90;;
64132;SDS011;53116;52.020;4.446;2022-08-24T05:08:39;4.18;;;2.13;;
64132;SDS011;53116;52.020;4.446;2022-08-24T05:11:05;4.70;;;2.30;;
64132;SDS011;53116;52.020;4.446;2022-08-24T05:13:32;3.38;;;2.40;;
64132;SDS011;53116;52.020;4.446;2022-08-24T05:15:57;4.80;;;2.40;;
64132;SDS011;53116;52.020;4.446;2022-08-24T05:18:23;3.23;;;2.50;;
64132;SDS011;53116;52.020;4.446;2022-08-24T05:20:48;7.00;;;2.40;;
64132;SDS011;53116;52.020;4.446;2022-08-24T05:23:13;4.15;;;2.80;;
64132;SDS011;53116;52.020;4.446;2022-08-24T05:25:39;4.18;;;2.60;;
64132;SDS011;53116;52.020;4.446;2022-08-24T05:30:37;3.97;;;2.80;;
64132;SDS011;53116;52.020;4.446;2022-08-24T05:33:02;5.23;;;2.60;;
64132;SDS011;53116;52.020;4.446;2022-08-24T05:35:28;6.60;;;3.47;;
64132;SDS011;53116;52.020;4.446;2022-08-24T05:37:53;3.55;;;2.45;;
64132;SDS011;53116;52.020;4.446;2022-08-24T05:40:19;4.35;;;2.90;;
64132;SDS011;53116;52.020;4.446;2022-08-24T05:42:44;5.35;;;2.70;;
64132;SDS011;53116;52.020;4.446;2022-08-24T05:45:10;4.25;;;3.08;;
64132;SDS011;53116;52.020;4.446;2022-08-24T05:47:36;4.85;;;2.90;;
64132;SDS011;53116;52.020;4.446;2022-08-24T05:50:03;3.47;;;2.83;;
64132;SDS011;53116;52.020;4.446;2022-08-24T05:52:29;4.53;;;3.03;;
64132;SDS011;53116;52.020;4.446;2022-08-24T05:54:56;5.68;;;3.22;;
64132;SDS011;53116;52.020;4.446;2022-08-24T05:57:23;6.28;;;3.35;;
64132;SDS011;53116;52.020;4.446;2022-08-24T05:59:50;3.88;;;3.00;;
64132;SDS011;53116;52.020;4.446;2022-08-24T06:02:16;5.60;;;3.20;;
64132;SDS011;53116;52.020;4.446;2022-08-24T06:04:43;4.10;;;3.10;;
64132;SDS011;53116;52.020;4.446;2022-08-24T06:07:09;8.07;;;3.30;;
64132;SDS011;53116;52.020;4.446;2022-08-24T06:09:35;6.53;;;3.10;;
64132;SDS011;53116;52.020;4.446;2022-08-24T06:12:01;5.00;;;2.55;;
64132;SDS011;53116;52.020;4.446;2022-08-24T06:14:27;2.80;;;2.40;;
64132;SDS011;53116;52.020;4.446;2022-08-24T06:16:52;3.63;;;2.17;;
64132;SDS011;53116;52.020;4.446;2022-08-24T06:19:18;4.32;;;2.10;;
64132;SDS011;53116;52.020;4.446;2022-08-24T06:21:45;3.22;;;2.10;;
64132;SDS011;53116;52.020;4.446;2022-08-24T06:24:12;2.03;;;1.70;;
64132;SDS011;53116;52.020;4.446;2022-08-24T06:26:42;3.05;;;1.90;;
64132;SDS011;53116;52.020;4.446;2022-08-24T06:29:27;3.05;;;1.70;;
64132;SDS011;53116;52.020;4.446;2022-08-24T06:31:52;2.95;;;1.50;;
64132;SDS011;53116;52.020;4.446;2022-08-24T06:34:18;3.60;;;1.50;;
64132;SDS011;53116;52.020;4.446;2022-08-24T06:36:44;4.10;;;1.77;;
64132;SDS011;53116;52.020;4.446;2022-08-24T06:39:10;2.33;;;1.40;;
64132;SDS011;53116;52.020;4.446;2022-08-24T06:41:36;2.20;;;1.50;;
64132;SDS011;53116;52.020;4.446;2022-08-24T06:44:03;3.38;;;1.90;;
64132;SDS011;53116;52.020;4.446;2022-08-24T06:46:28;2.83;;;2.08;;
64132;SDS011;53116;52.020;4.446;2022-08-24T06:48:54;2.95;;;2.30;;
64132;SDS011;53116;52.020;4.446;2022-08-24T06:51:19;3.43;;;2.10;;
64132;SDS011;53116;52.020;4.446;2022-08-24T06:53:46;4.80;;;2.38;;
64132;SDS011;53116;52.020;4.446;2022-08-24T06:56:12;4.13;;;2.90;;
64132;SDS011;53116;52.020;4.446;2022-08-24T06:58:38;6.28;;;3.70;;
64132;SDS011;53116;52.020;4.446;2022-08-24T07:01:14;3.95;;;2.78;;
64132;SDS011;53116;52.020;4.446;2022-08-24T07:03:44;5.15;;;2.70;;
64132;SDS011;53116;52.020;4.446;2022-08-24T07:06:10;6.82;;;3.05;;
64132;SDS011;53116;52.020;4.446;2022-08-24T07:08:38;4.35;;;2.97;;
64132;SDS011;53116;52.020;4.446;2022-08-24T07:11:06;5.78;;;3.00;;
64132;SDS011;53116;52.020;4.446;2022-08-24T07:13:32;5.15;;;3.15;;
64132;SDS011;53116;52.020;4.446;2022-08-24T07:15:58;5.60;;;3.00;;
64132;SDS011;53116;52.020;4.446;2022-08-24T07:18:24;4.07;;;2.80;;
64132;SDS011;53116;52.020;4.446;2022-08-24T07:20:50;3.50;;;2.42;;
64132;SDS011;53116;52.020;4.446;2022-08-24T07:23:15;4.97;;;2.10;;
64132;SDS011;53116;52.020;4.446;2022-08-24T07:25:42;5.05;;;2.50;;
64132;SDS011;53116;52.020;4.446;2022-08-24T07:28:09;7.00;;;2.50;;
64132;SDS011;53116;52.020;4.446;2022-08-24T07:30:36;5.43;;;2.17;;
64132;SDS011;53116;52.020;4.446;2022-08-24T07:33:02;4.85;;;2.22;;
64132;SDS011;53116;52.020;4.446;2022-08-24T07:35:28;4.65;;;2.67;;
64132;SDS011;53116;52.020;4.446;2022-08-24T07:37:56;3.83;;;2.42;;
64132;SDS011;53116;52.020;4.446;2022-08-24T07:40:23;5.93;;;2.35;;
64132;SDS011;53116;52.020;4.446;2022-08-24T07:42:50;5.22;;;2.38;;
64132;SDS011;53116;52.020;4.446;2022-08-24T07:45:17;4.10;;;2.15;;
64132;SDS011;53116;52.020;4.446;2022-08-24T07:47:43;6.93;;;2.08;;
64132;SDS011;53116;52.020;4.446;2022-08-24T07:50:10;3.75;;;1.85;;
64132;SDS011;53116;52.020;4.446;2022-08-24T07:52:36;8.98;;;2.03;;
64132;SDS011;53116;52.020;4.446;2022-08-24T07:55:02;4.18;;;2.20;;
64132;SDS011;53116;52.020;4.446;2022-08-24T07:57:28;2.95;;;1.77;;
64132;SDS011;53116;52.020;4.446;2022-08-24T07:59:54;3.65;;;1.90;;
64132;SDS011;53116;52.020;4.446;2022-08-24T08:02:19;3.80;;;1.83;;
64132;SDS011;53116;52.020;4.446;2022-08-24T08:04:44;5.00;;;1.73;;
64132;SDS011;53116;52.020;4.446;2022-08-24T08:07:09;5.03;;;1.60;;
64132;SDS011;53116;52.020;4.446;2022-08-24T08:09:38;5.20;;;2.40;;
64132;SDS011;53116;52.020;4.446;2022-08-24T08:12:04;4.63;;;1.60;;
64132;SDS011;53116;52.020;4.446;2022-08-24T08:14:30;4.20;;;1.40;;
64132;SDS011;53116;52.020;4.446;2022-08-24T08:16:55;3.50;;;2.05;;
64132;SDS011;53116;52.020;4.446;2022-08-24T08:19:21;2.53;;;1.70;;
64132;SDS011;53116;52.020;4.446;2022-08-24T08:21:47;3.80;;;1.80;;
64132;SDS011;53116;52.020;4.446;2022-08-24T08:24:32;4.55;;;1.88;;
64132;SDS011;53116;52.020;4.446;2022-08-24T08:26:59;4.10;;;1.88;;
64132;SDS011;53116;52.020;4.446;2022-08-24T08:29:24;2.88;;;1.85;;
64132;SDS011;53116;52.020;4.446;2022-08-24T08:31:50;3.80;;;1.60;;
64132;SDS011;53116;52.020;4.446;2022-08-24T08:34:17;1.77;;;1.35;;
64132;SDS011;53116;52.020;4.446;2022-08-24T08:36:43;3.28;;;1.50;;
64132;SDS011;53116;52.020;4.446;2022-08-24T08:39:09;2.47;;;1.30;;
64132;SDS011;53116;52.020;4.446;2022-08-24T08:47:28;1.65;;;1.20;;
64132;SDS011;53116;52.020;4.446;2022-08-24T08:50:16;4.85;;;1.50;;
64132;SDS011;53116;52.020;4.446;2022-08-24T09:04:05;5.25;;;1.30;;
64132;SDS011;53116;52.020;4.446;2022-08-24T09:06:53;1.70;;;1.10;;
64132;SDS011;53116;52.020;4.446;2022-08-24T09:09:48;3.47;;;1.38;;
64132;SDS011;53116;52.020;4.446;2022-08-24T09:12:33;1.67;;;1.00;;
64132;SDS011;53116;52.020;4.446;2022-08-24T09:20:46;2.33;;;0.93;;
64132;SDS011;53116;52.020;4.446;2022-08-24T09:26:45;1.73;;;0.90;;
64132;SDS011;53116;52.020;4.446;2022-08-24T09:29:42;1.77;;;1.10;;
64132;SDS011;53116;52.020;4.446;2022-08-24T09:35:21;5.95;;;1.30;;
64132;SDS011;53116;52.020;4.446;2022-08-24T09:37:58;2.10;;;1.30;;
64132;SDS011;53116;52.020;4.446;2022-08-24T09:46:30;2.67;;;1.10;;
64132;SDS011;53116;52.020;4.446;2022-08-24T09:52:22;2.20;;;1.25;;
64132;SDS011;53116;52.020;4.446;2022-08-24T10:00:41;1.58;;;0.98;;
64132;SDS011;53116;52.020;4.446;2022-08-24T10:03:21;1.77;;;1.20;;
64132;SDS011;53116;52.020;4.446;2022-08-24T10:08:54;1.52;;;1.00;;
64132;SDS011;53116;52.020;4.446;2022-08-24T10:11:44;2.45;;;1.20;;
64132;SDS011;53116;52.020;4.446;2022-08-24T10:14:40;1.20;;;1.10;;
64132;SDS011;53116;52.020;4.446;2022-08-24T10:17:22;1.65;;;1.15;;
64132;SDS011;53116;52.020;4.446;2022-08-24T10:20:12;1.05;;;0.70;;
64132;SDS011;53116;52.020;4.446;2022-08-24T10:25:41;2.70;;;1.23;;
64132;SDS011;53116;52.020;4.446;2022-08-24T10:37:25;3.47;;;1.50;;
64132;SDS011;53116;52.020;4.446;2022-08-24T10:42:42;4.40;;;1.65;;
64132;SDS011;53116;52.020;4.446;2022-08-24T10:48:46;2.25;;;1.13;;
64132;SDS011;53116;52.020;4.446;2022-08-24T10:51:42;7.05;;;1.30;;
64132;SDS011;53116;52.020;4.446;2022-08-24T10:54:14;3.28;;;1.38;;
64132;SDS011;53116;52.020;4.446;2022-08-24T10:57:02;3.13;;;1.10;;
64132;SDS011;53116;52.020;4.446;2022-08-24T11:04:57;3.13;;;1.10;;
64132;SDS011;53116;52.020;4.446;2022-08-24T11:07:24;2.58;;;1.10;;
64132;SDS011;53116;52.020;4.446;2022-08-24T11:10:02;2.63;;;1.20;;
64132;SDS011;53116;52.020;4.446;2022-08-24T11:12:42;2.72;;;1.30;;
64132;SDS011;53116;52.020;4.446;2022-08-24T11:17:52;1.80;;;1.20;;
64132;SDS011;53116;52.020;4.446;2022-08-24T11:20:30;2.47;;;1.25;;
64132;SDS011;53116;52.020;4.446;2022-08-24T11:23:02;2.70;;;1.58;;
64132;SDS011;53116;52.020;4.446;2022-08-24T11:25:29;1.80;;;1.38;;
64132;SDS011;53116;52.020;4.446;2022-08-24T11:27:58;6.07;;;1.50;;
64132;SDS011;53116;52.020;4.446;2022-08-24T11:30:29;1.20;;;1.10;;
64132;SDS011;53116;52.020;4.446;2022-08-24T11:32:56;2.72;;;1.58;;
64132;SDS011;53116;52.020;4.446;2022-08-24T11:38:07;3.38;;;1.33;;
64132;SDS011;53116;52.020;4.446;2022-08-24T11:40:40;4.45;;;1.42;;
64132;SDS011;53116;52.020;4.446;2022-08-24T11:45:41;4.63;;;2.10;;
64132;SDS011;53116;52.020;4.446;2022-08-24T11:48:19;2.03;;;1.63;;
64132;SDS011;53116;52.020;4.446;2022-08-24T11:50:55;3.17;;;1.42;;
64132;SDS011;53116;52.020;4.446;2022-08-24T12:01:50;2.03;;;1.52;;
64132;SDS011;53116;52.020;4.446;2022-08-24T12:13:19;7.10;;;1.63;;
64132;SDS011;53116;52.020;4.446;2022-08-24T12:18:52;2.17;;;1.58;;
64132;SDS011;53116;52.020;4.446;2022-08-24T12:21:26;2.25;;;1.67;;
64132;SDS011;53116;52.020;4.446;2022-08-24T12:24:04;2.50;;;1.58;;
64132;SDS011;53116;52.020;4.446;2022-08-24T12:29:08;1.98;;;1.77;;
64132;SDS011;53116;52.020;4.446;2022-08-24T12:32:25;2.47;;;1.48;;
64132;SDS011;53116;52.020;4.446;2022-08-24T12:34:31;3.30;;;1.50;;
64132;SDS011;53116;52.020;4.446;2022-08-24T12:37:14;2.05;;;1.70;;
64132;SDS011;53116;52.020;4.446;2022-08-24T12:39:47;3.75;;;1.98;;
64132;SDS011;53116;52.020;4.446;2022-08-24T12:42:39;4.03;;;1.80;;
64132;SDS011;53116;52.020;4.446;2022-08-24T12:48:04;3.97;;;1.97;;
64132;SDS011;53116;52.020;4.446;2022-08-24T12:51:04;4.22;;;1.63;;
64132;SDS011;53116;52.020;4.446;2022-08-24T12:53:55;2.40;;;1.63;;
64132;SDS011;53116;52.020;4.446;2022-08-24T13:33:40;4.10;;;1.23;;
64132;SDS011;53116;52.020;4.446;2022-08-24T13:36:44;3.28;;;1.27;;
64132;SDS011;53116;52.020;4.446;2022-08-24T13:42:05;4.30;;;1.40;;
64132;SDS011;53116;52.020;4.446;2022-08-24T13:50:38;4.80;;;1.20;;
64132;SDS011;53116;52.020;4.446;2022-08-24T13:58:54;2.67;;;1.23;;
64132;SDS011;53116;52.020;4.446;2022-08-24T14:04:03;3.13;;;1.17;;
64132;SDS011;53116;52.020;4.446;2022-08-24T14:09:47;2.30;;;1.00;;
64132;SDS011;53116;52.020;4.446;2022-08-24T14:15:11;1.88;;;1.20;;
64132;SDS011;53116;52.020;4.446;2022-08-24T14:20:32;1.83;;;1.00;;
64132;SDS011;53116;52.020;4.446;2022-08-24T14:25:42;1.85;;;1.15;;
64132;SDS011;53116;52.020;4.446;2022-08-24T14:31:12;4.22;;;1.20;;
64132;SDS011;53116;52.020;4.446;2022-08-24T14:33:42;2.38;;;1.20;;
64132;SDS011;53116;52.020;4.446;2022-08-24T14:36:20;4.57;;;1.30;;
64132;SDS011;53116;52.020;4.446;2022-08-24T14:39:05;3.30;;;1.30;;
64132;SDS011;53116;52.020;4.446;2022-08-24T14:41:49;1.88;;;1.02;;
64132;SDS011;53116;52.020;4.446;2022-08-24T14:44:31;2.00;;;1.10;;
64132;SDS011;53116;52.020;4.446;2022-08-24T14:50:31;3.38;;;1.60;;
64132;SDS011;53116;52.020;4.446;2022-08-24T14:59:02;4.32;;;1.65;;
64132;SDS011;53116;52.020;4.446;2022-08-24T15:06:48;4.78;;;1.70;;
64132;SDS011;53116;52.020;4.446;2022-08-24T15:09:31;4.10;;;1.80;;
64132;SDS011;53116;52.020;4.446;2022-08-24T15:15:10;1.90;;;1.50;;
64132;SDS011;53116;52.020;4.446;2022-08-24T15:17:54;5.10;;;1.60;;
64132;SDS011;53116;52.020;4.446;2022-08-24T15:23:12;3.25;;;1.80;;
64132;SDS011;53116;52.020;4.446;2022-08-24T15:25:51;3.80;;;1.52;;
64132;SDS011;53116;52.020;4.446;2022-08-24T15:28:25;2.50;;;1.63;;
64132;SDS011;53116;52.020;4.446;2022-08-24T15:30:57;2.88;;;1.60;;
64132;SDS011;53116;52.020;4.446;2022-08-24T15:33:26;2.20;;;1.60;;
64132;SDS011;53116;52.020;4.446;2022-08-24T15:36:04;2.95;;;1.42;;
64132;SDS011;53116;52.020;4.446;2022-08-24T15:38:33;3.75;;;1.58;;
64132;SDS011;53116;52.020;4.446;2022-08-24T15:41:02;2.17;;;1.58;;
64132;SDS011;53116;52.020;4.446;2022-08-24T15:43:31;1.92;;;1.58;;
64132;SDS011;53116;52.020;4.446;2022-08-24T15:45:58;3.28;;;1.75;;
64132;SDS011;53116;52.020;4.446;2022-08-24T15:48:24;2.75;;;1.40;;
64132;SDS011;53116;52.020;4.446;2022-08-24T15:50:51;5.30;;;1.40;;
64132;SDS011;53116;52.020;4.446;2022-08-24T15:53:24;5.88;;;2.00;;
64132;SDS011;53116;52.020;4.446;2022-08-24T15:55:53;3.00;;;1.70;;
64132;SDS011;53116;52.020;4.446;2022-08-24T15:58:34;3.75;;;1.80;;
64132;SDS011;53116;52.020;4.446;2022-08-24T16:03:56;4.32;;;2.17;;
64132;SDS011;53116;52.020;4.446;2022-08-24T16:06:25;4.50;;;1.88;;
64132;SDS011;53116;52.020;4.446;2022-08-24T16:08:58;4.40;;;2.15;;
64132;SDS011;53116;52.020;4.446;2022-08-24T16:11:34;4.95;;;2.35;;
64132;SDS011;53116;52.020;4.446;2022-08-24T16:14:03;4.97;;;2.03;;
64132;SDS011;53116;52.020;4.446;2022-08-24T16:16:35;3.95;;;2.17;;
64132;SDS011;53116;52.020;4.446;2022-08-24T16:19:05;6.53;;;2.10;;
64132;SDS011;53116;52.020;4.446;2022-08-24T16:21:43;9.70;;;2.45;;
64132;SDS011;53116;52.020;4.446;2022-08-24T16:32:14;3.50;;;2.17;;
64132;SDS011;53116;52.020;4.446;2022-08-24T16:37:25;4.55;;;2.45;;
64132;SDS011;53116;52.020;4.446;2022-08-24T16:39:50;3.23;;;2.20;;
64132;SDS011;53116;52.020;4.446;2022-08-24T16:42:21;5.40;;;2.58;;
64132;SDS011;53116;52.020;4.446;2022-08-24T16:44:49;4.45;;;2.30;;
64132;SDS011;53116;52.020;4.446;2022-08-24T16:47:15;6.47;;;2.25;;
64132;SDS011;53116;52.020;4.446;2022-08-24T16:49:40;4.65;;;2.00;;
64132;SDS011;53116;52.020;4.446;2022-08-24T16:52:06;4.35;;;2.13;;
64132;SDS011;53116;52.020;4.446;2022-08-24T16:54:31;3.53;;;2.28;;
64132;SDS011;53116;52.020;4.446;2022-08-24T16:56:57;4.22;;;2.00;;
64132;SDS011;53116;52.020;4.446;2022-08-24T16:59:29;4.47;;;2.28;;
64132;SDS011;53116;52.020;4.446;2022-08-24T17:01:57;3.97;;;2.38;;
64132;SDS011;53116;52.020;4.446;2022-08-24T17:04:24;9.05;;;2.17;;
64132;SDS011;53116;52.020;4.446;2022-08-24T17:06:50;3.15;;;2.10;;
64132;SDS011;53116;52.020;4.446;2022-08-24T17:09:15;4.28;;;2.90;;
64132;SDS011;53116;52.020;4.446;2022-08-24T17:11:41;6.43;;;2.80;;
64132;SDS011;53116;52.020;4.446;2022-08-24T17:14:07;3.33;;;2.40;;
64132;SDS011;53116;52.020;4.446;2022-08-24T17:16:33;5.35;;;2.90;;
64132;SDS011;53116;52.020;4.446;2022-08-24T17:18:59;5.60;;;3.10;;
64132;SDS011;53116;52.020;4.446;2022-08-24T17:21:27;2.83;;;2.60;;
64132;SDS011;53116;52.020;4.446;2022-08-24T17:23:52;4.40;;;3.13;;
64132;SDS011;53116;52.020;4.446;2022-08-24T17:26:18;3.95;;;2.60;;
64132;SDS011;53116;52.020;4.446;2022-08-24T17:28:44;4.10;;;2.55;;
64132;SDS011;53116;52.020;4.446;2022-08-24T17:31:13;6.13;;;2.70;;
64132;SDS011;53116;52.020;4.446;2022-08-24T17:33:39;4.22;;;2.55;;
64132;SDS011;53116;52.020;4.446;2022-08-24T17:36:05;4.53;;;2.42;;
64132;SDS011;53116;52.020;4.446;2022-08-24T17:38:33;4.32;;;2.45;;
64132;SDS011;53116;52.020;4.446;2022-08-24T17:41:06;5.53;;;2.90;;
64132;SDS011;53116;52.020;4.446;2022-08-24T17:43:31;4.67;;;2.60;;
64132;SDS011;53116;52.020;4.446;2022-08-24T17:45:56;5.80;;;3.07;;
64132;SDS011;53116;52.020;4.446;2022-08-24T17:48:24;2.88;;;2.60;;
64132;SDS011;53116;52.020;4.446;2022-08-24T17:50:51;6.45;;;2.75;;
64132;SDS011;53116;52.020;4.446;2022-08-24T17:53:17;5.30;;;2.70;;
64132;SDS011;53116;52.020;4.446;2022-08-24T17:55:42;4.35;;;2.80;;
64132;SDS011;53116;52.020;4.446;2022-08-24T17:58:07;5.57;;;3.08;;
64132;SDS011;53116;52.020;4.446;2022-08-24T18:00:34;4.85;;;2.80;;
64132;SDS011;53116;52.020;4.446;2022-08-24T18:03:00;4.53;;;2.90;;
64132;SDS011;53116;52.020;4.446;2022-08-24T18:05:25;4.20;;;2.50;;
64132;SDS011;53116;52.020;4.446;2022-08-24T18:07:52;3.40;;;2.63;;
64132;SDS011;53116;52.020;4.446;2022-08-24T18:10:21;3.90;;;2.72;;
64132;SDS011;53116;52.020;4.446;2022-08-24T18:12:48;6.53;;;2.70;;
64132;SDS011;53116;52.020;4.446;2022-08-24T18:15:14;5.95;;;2.97;;
64132;SDS011;53116;52.020;4.446;2022-08-24T18:17:41;5.57;;;2.90;;
64132;SDS011;53116;52.020;4.446;2022-08-24T18:20:10;6.45;;;3.22;;
64132;SDS011;53116;52.020;4.446;2022-08-24T18:22:37;5.88;;;3.08;;
64132;SDS011;53116;52.020;4.446;2022-08-24T18:25:08;7.00;;;3.22;;
64132;SDS011;53116;52.020;4.446;2022-08-24T18:27:35;8.10;;;3.42;;
64132;SDS011;53116;52.020;4.446;2022-08-24T18:30:04;5.82;;;3.28;;
64132;SDS011;53116;52.020;4.446;2022-08-24T18:32:31;7.07;;;3.70;;